sensor_id;sensor_type;location;lat;lon;timestamp;P1;durP1;ratioP1;P2;durP2;ratioP2
18249;SDS011;27980;52.126;5.572;2022-09-17T00:00:19;8.65;;;2.45;;
18249;SDS011;27980;52.126;5.572;2022-09-17T00:02:48;14.25;;;3.13;;
18249;SDS011;27980;52.126;5.572;2022-09-17T00:05:19;8.82;;;2.40;;
18249;SDS011;27980;52.126;5.572;2022-09-17T00:07:46;12.15;;;2.13;;
18249;SDS011;27980;52.126;5.572;2022-09-17T00:10:13;8.55;;;2.40;;
18249;SDS011;27980;52.126;5.572;2022-09-17T00:12:43;11.85;;;2.53;;
18249;SDS011;27980;52.126;5.572;2022-09-17T00:15:10;9.98;;;2.20;;
18249;SDS011;27980;52.126;5.572;2022-09-17T00:17:37;10.20;;;2.10;;
18249;SDS011;27980;52.126;5.572;2022-09-17T00:20:05;9.35;;;2.50;;
18249;SDS011;27980;52.126;5.572;2022-09-17T00:22:33;10.82;;;2.67;;
18249;SDS011;27980;52.126;5.572;2022-09-17T00:25:00;7.93;;;2.35;;
18249;SDS011;27980;52.126;5.572;2022-09-17T00:27:27;8.00;;;1.98;;
18249;SDS011;27980;52.126;5.572;2022-09-17T00:29:56;10.50;;;2.40;;
18249;SDS011;27980;52.126;5.572;2022-09-17T00:32:22;10.48;;;2.53;;
18249;SDS011;27980;52.126;5.572;2022-09-17T00:34:50;10.10;;;2.30;;
18249;SDS011;27980;52.126;5.572;2022-09-17T00:37:17;11.73;;;2.50;;
18249;SDS011;27980;52.126;5.572;2022-09-17T00:39:44;12.55;;;2.58;;
18249;SDS011;27980;52.126;5.572;2022-09-17T00:42:11;13.50;;;2.17;;
18249;SDS011;27980;52.126;5.572;2022-09-17T00:44:39;14.70;;;2.67;;
18249;SDS011;27980;52.126;5.572;2022-09-17T00:47:20;12.65;;;2.88;;
18249;SDS011;27980;52.126;5.572;2022-09-17T00:49:50;11.57;;;2.60;;
18249;SDS011;27980;52.126;5.572;2022-09-17T00:52:21;7.90;;;2.10;;
18249;SDS011;27980;52.126;5.572;2022-09-17T00:54:51;8.10;;;2.25;;
18249;SDS011;27980;52.126;5.572;2022-09-17T00:57:21;7.95;;;2.50;;
18249;SDS011;27980;52.126;5.572;2022-09-17T00:59:48;7.63;;;2.00;;
18249;SDS011;27980;52.126;5.572;2022-09-17T01:02:16;13.05;;;2.35;;
18249;SDS011;27980;52.126;5.572;2022-09-17T01:04:45;10.43;;;2.20;;
18249;SDS011;27980;52.126;5.572;2022-09-17T01:07:15;10.23;;;2.08;;
18249;SDS011;27980;52.126;5.572;2022-09-17T01:09:52;6.75;;;1.75;;
18249;SDS011;27980;52.126;5.572;2022-09-17T01:12:32;8.25;;;1.80;;
18249;SDS011;27980;52.126;5.572;2022-09-17T01:15:11;8.65;;;1.73;;
18249;SDS011;27980;52.126;5.572;2022-09-17T01:17:48;10.73;;;1.90;;
18249;SDS011;27980;52.126;5.572;2022-09-17T01:26:48;7.05;;;1.58;;
18249;SDS011;27980;52.126;5.572;2022-09-17T01:29:34;6.65;;;1.60;;
18249;SDS011;27980;52.126;5.572;2022-09-17T01:32:21;5.75;;;1.30;;
18249;SDS011;27980;52.126;5.572;2022-09-17T01:34:52;5.95;;;1.60;;
18249;SDS011;27980;52.126;5.572;2022-09-17T01:37:26;4.10;;;1.52;;
18249;SDS011;27980;52.126;5.572;2022-09-17T01:39:59;5.65;;;1.35;;
18249;SDS011;27980;52.126;5.572;2022-09-17T01:45:24;6.60;;;1.70;;
18249;SDS011;27980;52.126;5.572;2022-09-17T01:48:01;8.80;;;1.70;;
18249;SDS011;27980;52.126;5.572;2022-09-17T01:50:35;9.57;;;1.83;;
18249;SDS011;27980;52.126;5.572;2022-09-17T01:53:06;9.75;;;1.83;;
18249;SDS011;27980;52.126;5.572;2022-09-17T01:55:36;9.95;;;1.50;;
18249;SDS011;27980;52.126;5.572;2022-09-17T01:58:07;5.45;;;1.58;;
18249;SDS011;27980;52.126;5.572;2022-09-17T02:00:39;5.75;;;1.58;;
18249;SDS011;27980;52.126;5.572;2022-09-17T02:03:15;6.50;;;2.10;;
18249;SDS011;27980;52.126;5.572;2022-09-17T02:05:47;8.20;;;1.55;;
18249;SDS011;27980;52.126;5.572;2022-09-17T02:08:19;11.30;;;2.38;;
18249;SDS011;27980;52.126;5.572;2022-09-17T02:10:48;9.98;;;2.30;;
18249;SDS011;27980;52.126;5.572;2022-09-17T02:13:20;5.97;;;1.50;;
18249;SDS011;27980;52.126;5.572;2022-09-17T02:15:52;6.28;;;1.45;;
18249;SDS011;27980;52.126;5.572;2022-09-17T02:18:26;9.43;;;1.48;;
18249;SDS011;27980;52.126;5.572;2022-09-17T02:20:57;5.85;;;1.55;;
18249;SDS011;27980;52.126;5.572;2022-09-17T02:23:33;7.03;;;1.50;;
18249;SDS011;27980;52.126;5.572;2022-09-17T02:26:05;3.42;;;1.27;;
18249;SDS011;27980;52.126;5.572;2022-09-17T02:28:37;6.47;;;1.58;;
18249;SDS011;27980;52.126;5.572;2022-09-17T02:31:07;3.55;;;1.13;;
18249;SDS011;27980;52.126;5.572;2022-09-17T02:33:36;7.97;;;1.95;;
18249;SDS011;27980;52.126;5.572;2022-09-17T02:36:06;5.47;;;1.42;;
18249;SDS011;27980;52.126;5.572;2022-09-17T02:38:33;5.03;;;1.40;;
18249;SDS011;27980;52.126;5.572;2022-09-17T02:41:03;5.00;;;1.52;;
18249;SDS011;27980;52.126;5.572;2022-09-17T02:43:40;7.90;;;1.58;;
18249;SDS011;27980;52.126;5.572;2022-09-17T02:46:16;9.02;;;2.28;;
18249;SDS011;27980;52.126;5.572;2022-09-17T02:49:11;5.35;;;1.30;;
18249;SDS011;27980;52.126;5.572;2022-09-17T02:51:51;6.22;;;1.50;;
18249;SDS011;27980;52.126;5.572;2022-09-17T02:54:25;5.20;;;1.48;;
18249;SDS011;27980;52.126;5.572;2022-09-17T02:56:57;3.80;;;0.95;;
18249;SDS011;27980;52.126;5.572;2022-09-17T02:59:34;3.70;;;1.30;;
18249;SDS011;27980;52.126;5.572;2022-09-17T03:02:07;8.40;;;2.00;;
18249;SDS011;27980;52.126;5.572;2022-09-17T03:04:42;9.60;;;2.13;;
18249;SDS011;27980;52.126;5.572;2022-09-17T03:07:11;7.82;;;1.92;;
18249;SDS011;27980;52.126;5.572;2022-09-17T03:09:38;9.43;;;2.00;;
18249;SDS011;27980;52.126;5.572;2022-09-17T03:12:08;5.47;;;1.58;;
18249;SDS011;27980;52.126;5.572;2022-09-17T03:14:36;5.80;;;1.33;;
18249;SDS011;27980;52.126;5.572;2022-09-17T03:17:03;5.97;;;1.77;;
18249;SDS011;27980;52.126;5.572;2022-09-17T03:19:30;8.63;;;1.75;;
18249;SDS011;27980;52.126;5.572;2022-09-17T03:21:58;5.75;;;1.67;;
18249;SDS011;27980;52.126;5.572;2022-09-17T03:24:25;6.10;;;1.45;;
18249;SDS011;27980;52.126;5.572;2022-09-17T03:26:52;6.05;;;1.30;;
18249;SDS011;27980;52.126;5.572;2022-09-17T03:29:19;10.00;;;1.60;;
18249;SDS011;27980;52.126;5.572;2022-09-17T03:31:46;8.27;;;1.55;;
18249;SDS011;27980;52.126;5.572;2022-09-17T03:34:12;6.82;;;1.40;;
18249;SDS011;27980;52.126;5.572;2022-09-17T03:36:39;6.38;;;1.90;;
18249;SDS011;27980;52.126;5.572;2022-09-17T03:39:07;7.90;;;1.60;;
18249;SDS011;27980;52.126;5.572;2022-09-17T03:41:34;8.57;;;1.70;;
18249;SDS011;27980;52.126;5.572;2022-09-17T03:44:01;8.65;;;1.60;;
18249;SDS011;27980;52.126;5.572;2022-09-17T03:46:28;6.97;;;1.85;;
18249;SDS011;27980;52.126;5.572;2022-09-17T03:48:55;7.82;;;1.23;;
18249;SDS011;27980;52.126;5.572;2022-09-17T03:51:21;8.95;;;1.92;;
18249;SDS011;27980;52.126;5.572;2022-09-17T03:53:48;5.97;;;1.38;;
18249;SDS011;27980;52.126;5.572;2022-09-17T03:56:17;7.78;;;1.45;;
18249;SDS011;27980;52.126;5.572;2022-09-17T03:58:44;5.88;;;1.50;;
18249;SDS011;27980;52.126;5.572;2022-09-17T04:01:11;7.03;;;1.60;;
18249;SDS011;27980;52.126;5.572;2022-09-17T04:03:38;5.30;;;2.05;;
18249;SDS011;27980;52.126;5.572;2022-09-17T04:06:06;7.85;;;1.92;;
18249;SDS011;27980;52.126;5.572;2022-09-17T04:08:33;5.55;;;1.98;;
18249;SDS011;27980;52.126;5.572;2022-09-17T04:11:00;10.85;;;2.25;;
18249;SDS011;27980;52.126;5.572;2022-09-17T04:13:29;8.80;;;1.70;;
18249;SDS011;27980;52.126;5.572;2022-09-17T04:15:55;6.03;;;1.40;;
18249;SDS011;27980;52.126;5.572;2022-09-17T04:18:22;8.38;;;1.73;;
18249;SDS011;27980;52.126;5.572;2022-09-17T04:20:49;5.47;;;1.60;;
18249;SDS011;27980;52.126;5.572;2022-09-17T04:23:16;7.85;;;2.72;;
18249;SDS011;27980;52.126;5.572;2022-09-17T04:25:44;8.68;;;1.85;;
18249;SDS011;27980;52.126;5.572;2022-09-17T04:28:11;9.13;;;2.55;;
18249;SDS011;27980;52.126;5.572;2022-09-17T04:30:39;8.07;;;1.52;;
18249;SDS011;27980;52.126;5.572;2022-09-17T04:33:07;4.78;;;1.40;;
18249;SDS011;27980;52.126;5.572;2022-09-17T04:35:35;7.15;;;1.67;;
18249;SDS011;27980;52.126;5.572;2022-09-17T04:38:02;5.95;;;1.55;;
18249;SDS011;27980;52.126;5.572;2022-09-17T04:40:29;7.80;;;2.13;;
18249;SDS011;27980;52.126;5.572;2022-09-17T04:42:56;9.63;;;1.58;;
18249;SDS011;27980;52.126;5.572;2022-09-17T04:45:27;5.20;;;1.55;;
18249;SDS011;27980;52.126;5.572;2022-09-17T04:47:56;8.32;;;1.77;;
18249;SDS011;27980;52.126;5.572;2022-09-17T04:50:23;10.45;;;1.90;;
18249;SDS011;27980;52.126;5.572;2022-09-17T04:52:49;11.00;;;2.17;;
18249;SDS011;27980;52.126;5.572;2022-09-17T04:55:16;7.50;;;1.80;;
18249;SDS011;27980;52.126;5.572;2022-09-17T04:57:46;8.75;;;1.88;;
18249;SDS011;27980;52.126;5.572;2022-09-17T05:00:14;5.88;;;1.55;;
18249;SDS011;27980;52.126;5.572;2022-09-17T05:02:43;4.65;;;1.23;;
18249;SDS011;27980;52.126;5.572;2022-09-17T05:05:12;5.18;;;1.58;;
18249;SDS011;27980;52.126;5.572;2022-09-17T05:07:40;4.25;;;1.40;;
18249;SDS011;27980;52.126;5.572;2022-09-17T05:10:08;6.53;;;1.58;;
18249;SDS011;27980;52.126;5.572;2022-09-17T05:12:36;5.82;;;1.55;;
18249;SDS011;27980;52.126;5.572;2022-09-17T05:15:03;6.40;;;1.40;;
18249;SDS011;27980;52.126;5.572;2022-09-17T05:17:30;4.38;;;1.23;;
18249;SDS011;27980;52.126;5.572;2022-09-17T05:19:57;5.25;;;1.30;;
18249;SDS011;27980;52.126;5.572;2022-09-17T05:22:25;7.90;;;1.45;;
18249;SDS011;27980;52.126;5.572;2022-09-17T05:24:52;6.47;;;1.48;;
18249;SDS011;27980;52.126;5.572;2022-09-17T05:27:19;8.73;;;1.58;;
18249;SDS011;27980;52.126;5.572;2022-09-17T05:29:45;7.07;;;1.85;;
18249;SDS011;27980;52.126;5.572;2022-09-17T05:32:14;6.13;;;1.90;;
18249;SDS011;27980;52.126;5.572;2022-09-17T05:34:40;7.90;;;1.90;;
18249;SDS011;27980;52.126;5.572;2022-09-17T05:37:08;5.10;;;1.63;;
18249;SDS011;27980;52.126;5.572;2022-09-17T05:39:36;4.78;;;1.40;;
18249;SDS011;27980;52.126;5.572;2022-09-17T05:42:04;7.25;;;1.38;;
18249;SDS011;27980;52.126;5.572;2022-09-17T05:44:31;3.80;;;1.02;;
18249;SDS011;27980;52.126;5.572;2022-09-17T05:46:57;6.57;;;1.50;;
18249;SDS011;27980;52.126;5.572;2022-09-17T05:49:24;6.28;;;1.67;;
18249;SDS011;27980;52.126;5.572;2022-09-17T05:51:51;7.05;;;1.33;;
18249;SDS011;27980;52.126;5.572;2022-09-17T05:54:18;5.30;;;1.58;;
18249;SDS011;27980;52.126;5.572;2022-09-17T05:56:52;5.57;;;1.40;;
18249;SDS011;27980;52.126;5.572;2022-09-17T05:59:19;5.35;;;1.65;;
18249;SDS011;27980;52.126;5.572;2022-09-17T06:01:46;5.70;;;1.27;;
18249;SDS011;27980;52.126;5.572;2022-09-17T06:04:13;4.13;;;1.58;;
18249;SDS011;27980;52.126;5.572;2022-09-17T06:06:41;6.55;;;1.30;;
18249;SDS011;27980;52.126;5.572;2022-09-17T06:09:08;5.90;;;1.52;;
18249;SDS011;27980;52.126;5.572;2022-09-17T06:11:38;5.85;;;1.60;;
18249;SDS011;27980;52.126;5.572;2022-09-17T06:14:07;6.35;;;1.20;;
18249;SDS011;27980;52.126;5.572;2022-09-17T06:16:34;2.55;;;1.02;;
18249;SDS011;27980;52.126;5.572;2022-09-17T06:19:01;5.05;;;1.33;;
18249;SDS011;27980;52.126;5.572;2022-09-17T06:21:29;3.72;;;1.17;;
18249;SDS011;27980;52.126;5.572;2022-09-17T06:23:56;3.38;;;1.30;;
18249;SDS011;27980;52.126;5.572;2022-09-17T06:26:24;5.03;;;1.25;;
18249;SDS011;27980;52.126;5.572;2022-09-17T06:28:50;4.85;;;1.40;;
18249;SDS011;27980;52.126;5.572;2022-09-17T06:31:21;6.45;;;1.63;;
18249;SDS011;27980;52.126;5.572;2022-09-17T06:33:48;7.30;;;1.77;;
18249;SDS011;27980;52.126;5.572;2022-09-17T06:36:15;5.60;;;1.42;;
18249;SDS011;27980;52.126;5.572;2022-09-17T06:38:43;2.35;;;1.20;;
18249;SDS011;27980;52.126;5.572;2022-09-17T06:41:11;6.90;;;1.73;;
18249;SDS011;27980;52.126;5.572;2022-09-17T06:43:40;5.47;;;1.13;;
18249;SDS011;27980;52.126;5.572;2022-09-17T06:46:08;4.78;;;1.10;;
18249;SDS011;27980;52.126;5.572;2022-09-17T06:48:39;5.40;;;1.20;;
18249;SDS011;27980;52.126;5.572;2022-09-17T06:51:06;10.23;;;1.60;;
18249;SDS011;27980;52.126;5.572;2022-09-17T06:53:36;3.72;;;1.13;;
18249;SDS011;27980;52.126;5.572;2022-09-17T06:56:15;4.65;;;1.38;;
18249;SDS011;27980;52.126;5.572;2022-09-17T06:58:42;8.15;;;2.15;;
18249;SDS011;27980;52.126;5.572;2022-09-17T07:01:09;3.80;;;1.10;;
18249;SDS011;27980;52.126;5.572;2022-09-17T07:03:40;7.38;;;1.45;;
18249;SDS011;27980;52.126;5.572;2022-09-17T07:06:08;5.55;;;1.10;;
18249;SDS011;27980;52.126;5.572;2022-09-17T07:08:36;3.47;;;1.05;;
18249;SDS011;27980;52.126;5.572;2022-09-17T07:11:05;5.70;;;1.15;;
18249;SDS011;27980;52.126;5.572;2022-09-17T07:13:33;1.60;;;0.90;;
18249;SDS011;27980;52.126;5.572;2022-09-17T07:16:00;3.67;;;0.90;;
18249;SDS011;27980;52.126;5.572;2022-09-17T07:18:28;3.78;;;1.05;;
18249;SDS011;27980;52.126;5.572;2022-09-17T07:20:57;3.92;;;1.02;;
18249;SDS011;27980;52.126;5.572;2022-09-17T07:23:26;5.05;;;1.15;;
18249;SDS011;27980;52.126;5.572;2022-09-17T07:25:56;5.03;;;1.08;;
18249;SDS011;27980;52.126;5.572;2022-09-17T07:28:25;4.80;;;1.13;;
18249;SDS011;27980;52.126;5.572;2022-09-17T07:30:52;5.32;;;1.33;;
18249;SDS011;27980;52.126;5.572;2022-09-17T07:33:23;2.47;;;0.70;;
18249;SDS011;27980;52.126;5.572;2022-09-17T07:35:52;4.55;;;1.20;;
18249;SDS011;27980;52.126;5.572;2022-09-17T07:38:23;3.03;;;0.93;;
18249;SDS011;27980;52.126;5.572;2022-09-17T07:40:55;3.70;;;0.90;;
18249;SDS011;27980;52.126;5.572;2022-09-17T07:43:23;3.20;;;1.00;;
18249;SDS011;27980;52.126;5.572;2022-09-17T07:45:50;3.38;;;1.17;;
18249;SDS011;27980;52.126;5.572;2022-09-17T07:48:17;2.45;;;0.90;;
18249;SDS011;27980;52.126;5.572;2022-09-17T07:50:44;3.08;;;1.00;;
18249;SDS011;27980;52.126;5.572;2022-09-17T07:53:11;4.70;;;1.20;;
18249;SDS011;27980;52.126;5.572;2022-09-17T07:55:39;3.25;;;1.02;;
18249;SDS011;27980;52.126;5.572;2022-09-17T07:58:06;3.88;;;1.00;;
18249;SDS011;27980;52.126;5.572;2022-09-17T08:00:33;3.00;;;1.10;;
18249;SDS011;27980;52.126;5.572;2022-09-17T08:03:00;2.55;;;1.00;;
18249;SDS011;27980;52.126;5.572;2022-09-17T08:05:27;3.58;;;0.80;;
18249;SDS011;27980;52.126;5.572;2022-09-17T08:07:54;1.63;;;0.70;;
18249;SDS011;27980;52.126;5.572;2022-09-17T08:10:21;5.50;;;1.20;;
18249;SDS011;27980;52.126;5.572;2022-09-17T08:12:52;5.35;;;1.08;;
18249;SDS011;27980;52.126;5.572;2022-09-17T08:15:20;3.53;;;1.05;;
18249;SDS011;27980;52.126;5.572;2022-09-17T08:17:48;4.20;;;1.00;;
18249;SDS011;27980;52.126;5.572;2022-09-17T08:20:16;4.05;;;1.02;;
18249;SDS011;27980;52.126;5.572;2022-09-17T08:22:43;6.28;;;1.23;;
18249;SDS011;27980;52.126;5.572;2022-09-17T08:25:10;7.05;;;1.17;;
18249;SDS011;27980;52.126;5.572;2022-09-17T08:27:37;4.38;;;0.90;;
18249;SDS011;27980;52.126;5.572;2022-09-17T08:30:07;2.67;;;0.70;;
18249;SDS011;27980;52.126;5.572;2022-09-17T08:32:34;3.13;;;0.65;;
18249;SDS011;27980;52.126;5.572;2022-09-17T08:35:07;3.45;;;1.00;;
18249;SDS011;27980;52.126;5.572;2022-09-17T08:37:35;2.33;;;0.68;;
18249;SDS011;27980;52.126;5.572;2022-09-17T08:40:02;4.45;;;1.10;;
18249;SDS011;27980;52.126;5.572;2022-09-17T08:42:31;4.38;;;1.10;;
18249;SDS011;27980;52.126;5.572;2022-09-17T08:45:04;2.63;;;0.75;;
18249;SDS011;27980;52.126;5.572;2022-09-17T08:47:36;2.40;;;0.88;;
18249;SDS011;27980;52.126;5.572;2022-09-17T08:50:07;4.00;;;0.93;;
18249;SDS011;27980;52.126;5.572;2022-09-17T08:55:36;1.55;;;0.63;;
18249;SDS011;27980;52.126;5.572;2022-09-17T08:58:28;2.60;;;0.55;;
18249;SDS011;27980;52.126;5.572;2022-09-17T09:01:26;2.20;;;0.60;;
18249;SDS011;27980;52.126;5.572;2022-09-17T09:04:10;1.25;;;0.47;;
18249;SDS011;27980;52.126;5.572;2022-09-17T09:06:59;3.20;;;0.60;;
18249;SDS011;27980;52.126;5.572;2022-09-17T09:09:31;3.17;;;0.70;;
18249;SDS011;27980;52.126;5.572;2022-09-17T09:12:10;3.28;;;0.85;;
18249;SDS011;27980;52.126;5.572;2022-09-17T09:14:45;4.10;;;0.90;;
18249;SDS011;27980;52.126;5.572;2022-09-17T09:17:21;2.38;;;1.00;;
18249;SDS011;27980;52.126;5.572;2022-09-17T09:19:52;2.00;;;0.73;;
18249;SDS011;27980;52.126;5.572;2022-09-17T09:22:33;3.03;;;0.73;;
18249;SDS011;27980;52.126;5.572;2022-09-17T09:25:13;3.30;;;0.70;;
18249;SDS011;27980;52.126;5.572;2022-09-17T09:27:48;3.20;;;0.80;;
18249;SDS011;27980;52.126;5.572;2022-09-17T09:30:22;4.75;;;0.90;;
18249;SDS011;27980;52.126;5.572;2022-09-17T09:32:54;2.08;;;0.90;;
18249;SDS011;27980;52.126;5.572;2022-09-17T09:35:24;3.40;;;0.90;;
18249;SDS011;27980;52.126;5.572;2022-09-17T09:37:55;2.72;;;0.77;;
18249;SDS011;27980;52.126;5.572;2022-09-17T09:40:30;2.53;;;0.93;;
18249;SDS011;27980;52.126;5.572;2022-09-17T09:43:08;2.67;;;0.88;;
18249;SDS011;27980;52.126;5.572;2022-09-17T09:46:02;2.90;;;0.93;;
18249;SDS011;27980;52.126;5.572;2022-09-17T09:48:45;2.90;;;0.80;;
18249;SDS011;27980;52.126;5.572;2022-09-17T09:51:30;2.88;;;0.80;;
18249;SDS011;27980;52.126;5.572;2022-09-17T09:54:10;3.20;;;1.20;;
18249;SDS011;27980;52.126;5.572;2022-09-17T09:56:52;1.42;;;0.60;;
18249;SDS011;27980;52.126;5.572;2022-09-17T09:59:22;3.88;;;0.73;;
18249;SDS011;27980;52.126;5.572;2022-09-17T10:01:48;2.67;;;1.00;;
18249;SDS011;27980;52.126;5.572;2022-09-17T10:04:18;3.38;;;0.85;;
18249;SDS011;27980;52.126;5.572;2022-09-17T10:06:47;1.85;;;0.50;;
18249;SDS011;27980;52.126;5.572;2022-09-17T10:09:16;3.53;;;1.40;;
18249;SDS011;27980;52.126;5.572;2022-09-17T10:14:31;2.33;;;0.70;;
18249;SDS011;27980;52.126;5.572;2022-09-17T10:22:39;3.33;;;0.70;;
18249;SDS011;27980;52.126;5.572;2022-09-17T10:25:17;2.25;;;0.90;;
18249;SDS011;27980;52.126;5.572;2022-09-17T10:27:56;3.03;;;0.93;;
18249;SDS011;27980;52.126;5.572;2022-09-17T10:30:25;4.45;;;0.60;;
18249;SDS011;27980;52.126;5.572;2022-09-17T10:33:14;3.35;;;0.90;;
18249;SDS011;27980;52.126;5.572;2022-09-17T10:35:54;3.80;;;0.90;;
18249;SDS011;27980;52.126;5.572;2022-09-17T10:38:31;4.18;;;1.13;;
18249;SDS011;27980;52.126;5.572;2022-09-17T10:41:10;1.88;;;0.80;;
18249;SDS011;27980;52.126;5.572;2022-09-17T10:43:39;2.08;;;0.77;;
18249;SDS011;27980;52.126;5.572;2022-09-17T10:46:07;4.07;;;0.70;;
18249;SDS011;27980;52.126;5.572;2022-09-17T10:48:40;4.93;;;0.90;;
18249;SDS011;27980;52.126;5.572;2022-09-17T10:51:10;2.65;;;0.98;;
18249;SDS011;27980;52.126;5.572;2022-09-17T10:56:43;3.35;;;1.40;;
18249;SDS011;27980;52.126;5.572;2022-09-17T10:59:22;4.05;;;1.10;;
18249;SDS011;27980;52.126;5.572;2022-09-17T11:02:08;2.83;;;0.90;;
18249;SDS011;27980;52.126;5.572;2022-09-17T11:04:50;3.08;;;0.80;;
18249;SDS011;27980;52.126;5.572;2022-09-17T11:07:34;3.13;;;0.82;;
18249;SDS011;27980;52.126;5.572;2022-09-17T11:10:10;4.63;;;1.02;;
18249;SDS011;27980;52.126;5.572;2022-09-17T11:12:46;3.40;;;1.20;;
18249;SDS011;27980;52.126;5.572;2022-09-17T11:15:30;2.50;;;1.00;;
18249;SDS011;27980;52.126;5.572;2022-09-17T11:18:14;6.22;;;1.20;;
18249;SDS011;27980;52.126;5.572;2022-09-17T11:21:04;6.03;;;1.45;;
18249;SDS011;27980;52.126;5.572;2022-09-17T11:26:57;3.70;;;1.20;;
18249;SDS011;27980;52.126;5.572;2022-09-17T11:29:35;5.28;;;1.60;;
18249;SDS011;27980;52.126;5.572;2022-09-17T11:32:22;4.47;;;1.23;;
18249;SDS011;27980;52.126;5.572;2022-09-17T11:34:59;5.00;;;1.60;;
18249;SDS011;27980;52.126;5.572;2022-09-17T11:37:30;5.32;;;1.50;;
18249;SDS011;27980;52.126;5.572;2022-09-17T11:40:03;7.32;;;1.60;;
18249;SDS011;27980;52.126;5.572;2022-09-17T11:42:41;4.85;;;1.42;;
18249;SDS011;27980;52.126;5.572;2022-09-17T11:45:13;7.43;;;1.67;;
18249;SDS011;27980;52.126;5.572;2022-09-17T11:47:46;7.72;;;1.30;;
18249;SDS011;27980;52.126;5.572;2022-09-17T11:50:18;3.58;;;1.33;;
18249;SDS011;27980;52.126;5.572;2022-09-17T11:52:53;5.97;;;1.60;;
18249;SDS011;27980;52.126;5.572;2022-09-17T11:55:36;5.63;;;1.13;;
18249;SDS011;27980;52.126;5.572;2022-09-17T11:58:13;3.13;;;0.93;;
18249;SDS011;27980;52.126;5.572;2022-09-17T12:00:45;4.43;;;1.15;;
18249;SDS011;27980;52.126;5.572;2022-09-17T12:03:18;3.20;;;0.85;;
18249;SDS011;27980;52.126;5.572;2022-09-17T12:05:51;3.78;;;1.15;;
18249;SDS011;27980;52.126;5.572;2022-09-17T12:08:21;2.65;;;0.98;;
18249;SDS011;27980;52.126;5.572;2022-09-17T12:10:53;3.38;;;1.00;;
18249;SDS011;27980;52.126;5.572;2022-09-17T12:13:29;3.70;;;0.98;;
18249;SDS011;27980;52.126;5.572;2022-09-17T12:16:03;3.60;;;1.20;;
18249;SDS011;27980;52.126;5.572;2022-09-17T12:18:43;2.67;;;1.30;;
18249;SDS011;27980;52.126;5.572;2022-09-17T12:21:30;5.75;;;1.17;;
18249;SDS011;27980;52.126;5.572;2022-09-17T12:24:02;4.03;;;0.93;;
18249;SDS011;27980;52.126;5.572;2022-09-17T12:26:50;3.47;;;0.80;;
18249;SDS011;27980;52.126;5.572;2022-09-17T12:29:39;2.70;;;0.70;;
18249;SDS011;27980;52.126;5.572;2022-09-17T12:32:43;3.53;;;1.13;;
18249;SDS011;27980;52.126;5.572;2022-09-17T12:35:39;4.63;;;1.02;;
18249;SDS011;27980;52.126;5.572;2022-09-17T12:38:20;3.65;;;1.20;;
18249;SDS011;27980;52.126;5.572;2022-09-17T12:40:57;4.20;;;1.20;;
18249;SDS011;27980;52.126;5.572;2022-09-17T12:43:42;3.50;;;1.20;;
18249;SDS011;27980;52.126;5.572;2022-09-17T12:46:26;4.22;;;1.10;;
18249;SDS011;27980;52.126;5.572;2022-09-17T12:49:17;3.03;;;1.10;;
18249;SDS011;27980;52.126;5.572;2022-09-17T12:52:02;4.75;;;1.02;;
18249;SDS011;27980;52.126;5.572;2022-09-17T12:54:43;4.55;;;1.30;;
18249;SDS011;27980;52.126;5.572;2022-09-17T12:57:25;5.05;;;1.40;;
18249;SDS011;27980;52.126;5.572;2022-09-17T12:59:59;4.93;;;1.20;;
18249;SDS011;27980;52.126;5.572;2022-09-17T13:02:32;3.00;;;1.10;;
18249;SDS011;27980;52.126;5.572;2022-09-17T13:05:13;4.43;;;1.30;;
18249;SDS011;27980;52.126;5.572;2022-09-17T13:08:14;5.40;;;1.15;;
18249;SDS011;27980;52.126;5.572;2022-09-17T13:11:05;4.22;;;1.10;;
18249;SDS011;27980;52.126;5.572;2022-09-17T13:13:52;4.72;;;1.20;;
18249;SDS011;27980;52.126;5.572;2022-09-17T13:16:27;3.38;;;1.15;;
18249;SDS011;27980;52.126;5.572;2022-09-17T13:19:02;4.53;;;1.20;;
18249;SDS011;27980;52.126;5.572;2022-09-17T13:21:33;4.70;;;1.38;;
18249;SDS011;27980;52.126;5.572;2022-09-17T13:24:13;5.72;;;1.38;;
18249;SDS011;27980;52.126;5.572;2022-09-17T13:26:41;5.90;;;1.40;;
18249;SDS011;27980;52.126;5.572;2022-09-17T13:29:10;6.88;;;1.50;;
18249;SDS011;27980;52.126;5.572;2022-09-17T13:31:46;5.80;;;1.50;;
18249;SDS011;27980;52.126;5.572;2022-09-17T13:34:26;8.13;;;1.52;;
18249;SDS011;27980;52.126;5.572;2022-09-17T13:36:55;6.78;;;1.33;;
18249;SDS011;27980;52.126;5.572;2022-09-17T13:39:37;7.47;;;1.70;;
18249;SDS011;27980;52.126;5.572;2022-09-17T13:42:13;5.65;;;1.15;;
18249;SDS011;27980;52.126;5.572;2022-09-17T13:44:46;9.95;;;1.80;;
18249;SDS011;27980;52.126;5.572;2022-09-17T13:47:19;4.55;;;1.30;;
18249;SDS011;27980;52.126;5.572;2022-09-17T13:49:51;7.07;;;1.63;;
18249;SDS011;27980;52.126;5.572;2022-09-17T13:52:27;5.00;;;0.95;;
18249;SDS011;27980;52.126;5.572;2022-09-17T13:54:57;6.20;;;1.33;;
18249;SDS011;27980;52.126;5.572;2022-09-17T13:57:25;11.20;;;2.00;;
18249;SDS011;27980;52.126;5.572;2022-09-17T13:59:53;3.38;;;1.20;;
18249;SDS011;27980;52.126;5.572;2022-09-17T14:02:28;3.15;;;0.70;;
18249;SDS011;27980;52.126;5.572;2022-09-17T14:08:09;5.07;;;1.10;;
18249;SDS011;27980;52.126;5.572;2022-09-17T14:10:56;2.88;;;1.27;;
18249;SDS011;27980;52.126;5.572;2022-09-17T14:13:27;4.03;;;0.82;;
18249;SDS011;27980;52.126;5.572;2022-09-17T14:19:24;5.15;;;1.30;;
18249;SDS011;27980;52.126;5.572;2022-09-17T14:21:59;3.55;;;1.10;;
18249;SDS011;27980;52.126;5.572;2022-09-17T14:24:33;6.32;;;1.30;;
18249;SDS011;27980;52.126;5.572;2022-09-17T14:27:12;3.90;;;1.13;;
18249;SDS011;27980;52.126;5.572;2022-09-17T14:29:53;2.58;;;0.70;;
18249;SDS011;27980;52.126;5.572;2022-09-17T14:32:30;6.47;;;3.50;;
18249;SDS011;27980;52.126;5.572;2022-09-17T14:35:13;5.53;;;2.53;;
18249;SDS011;27980;52.126;5.572;2022-09-17T14:37:47;4.15;;;1.38;;
18249;SDS011;27980;52.126;5.572;2022-09-17T14:40:18;3.00;;;1.00;;
18249;SDS011;27980;52.126;5.572;2022-09-17T14:42:47;5.15;;;1.13;;
18249;SDS011;27980;52.126;5.572;2022-09-17T14:45:18;5.80;;;0.95;;
18249;SDS011;27980;52.126;5.572;2022-09-17T14:47:48;5.00;;;1.20;;
18249;SDS011;27980;52.126;5.572;2022-09-17T14:50:20;6.85;;;1.45;;
18249;SDS011;27980;52.126;5.572;2022-09-17T14:52:49;3.72;;;1.10;;
18249;SDS011;27980;52.126;5.572;2022-09-17T14:55:17;4.03;;;1.48;;
18249;SDS011;27980;52.126;5.572;2022-09-17T14:57:47;4.90;;;1.52;;
18249;SDS011;27980;52.126;5.572;2022-09-17T15:00:18;6.70;;;1.50;;
18249;SDS011;27980;52.126;5.572;2022-09-17T15:02:49;5.82;;;1.50;;
18249;SDS011;27980;52.126;5.572;2022-09-17T15:05:25;5.72;;;1.25;;
18249;SDS011;27980;52.126;5.572;2022-09-17T15:08:03;5.25;;;1.38;;
18249;SDS011;27980;52.126;5.572;2022-09-17T15:10:34;7.43;;;1.83;;
18249;SDS011;27980;52.126;5.572;2022-09-17T15:13:04;6.82;;;1.80;;
18249;SDS011;27980;52.126;5.572;2022-09-17T15:15:39;7.50;;;2.00;;
18249;SDS011;27980;52.126;5.572;2022-09-17T15:18:16;6.82;;;1.63;;
18249;SDS011;27980;52.126;5.572;2022-09-17T15:20:44;3.88;;;1.35;;
18249;SDS011;27980;52.126;5.572;2022-09-17T15:23:13;8.13;;;1.33;;
18249;SDS011;27980;52.126;5.572;2022-09-17T15:25:43;6.28;;;1.40;;
18249;SDS011;27980;52.126;5.572;2022-09-17T15:28:17;6.03;;;1.50;;
18249;SDS011;27980;52.126;5.572;2022-09-17T15:30:54;6.82;;;1.80;;
18249;SDS011;27980;52.126;5.572;2022-09-17T15:33:21;5.90;;;1.60;;
18249;SDS011;27980;52.126;5.572;2022-09-17T15:36:00;7.47;;;1.70;;
18249;SDS011;27980;52.126;5.572;2022-09-17T15:38:32;10.02;;;2.17;;
18249;SDS011;27980;52.126;5.572;2022-09-17T15:41:20;7.60;;;1.77;;
18249;SDS011;27980;52.126;5.572;2022-09-17T15:46:48;9.07;;;2.40;;
18249;SDS011;27980;52.126;5.572;2022-09-17T15:49:31;7.78;;;1.90;;
18249;SDS011;27980;52.126;5.572;2022-09-17T15:52:20;8.60;;;2.10;;